createdAt,value
2023-01-23T00:01:30.357Z,102310.22
2023-01-23T00:03:57.979Z,102305.53
2023-01-23T00:06:25.479Z,102303.91
2023-01-23T00:08:52.253Z,102305.53
2023-01-23T00:11:24.580Z,102307.78
2023-01-23T00:13:51.713Z,102313.28
2023-01-23T00:16:22.621Z,102311.06
2023-01-23T00:18:50.241Z,102308.28
2023-01-23T00:21:20.361Z,102304.44
2023-01-23T00:23:49.828Z,102298.91
2023-01-23T00:26:19.406Z,102313.22
2023-01-23T00:28:47.280Z,102318.22
2023-01-23T00:31:17.481Z,102323.75
2023-01-23T00:33:44.793Z,102317.91
2023-01-23T00:36:13.371Z,102320.41
2023-01-23T00:38:40.800Z,102319.28
2023-01-23T00:41:07.759Z,102319.59
2023-01-23T00:43:34.368Z,102332.25
2023-01-23T00:46:01.403Z,102330.31
2023-01-23T00:48:28.334Z,102329.50
2023-01-23T00:50:55.063Z,102323.97
2023-01-23T00:53:22.055Z,102331.97
2023-01-23T00:55:48.729Z,102342.19
2023-01-23T00:58:15.477Z,102336.66
2023-01-23T01:00:42.139Z,102336.38
2023-01-23T01:03:09.238Z,102337.50
2023-01-23T01:05:36.324Z,102330.31
2023-01-23T01:08:03.304Z,102339.72
2023-01-23T01:10:31.736Z,102347.19
2023-01-23T01:12:59.974Z,102341.66
2023-01-23T01:15:27.568Z,102350.78
2023-01-23T01:17:54.311Z,102338.06
2023-01-23T01:20:23.706Z,102338.91
2023-01-23T01:22:50.929Z,102360.16
2023-01-23T01:25:18.207Z,102355.75
2023-01-23T01:27:45.390Z,102357.41
2023-01-23T01:30:13.102Z,102355.75
2023-01-23T01:32:41.366Z,102354.63
2023-01-23T01:35:09.469Z,102358.22
2023-01-23T01:37:37.762Z,102361.00
2023-01-23T01:40:07.096Z,102361.00
2023-01-23T01:42:49.744Z,102356.56
2023-01-23T01:45:53.609Z,102359.31
2023-01-23T01:48:24.453Z,102359.31
2023-01-23T01:50:51.754Z,102371.19
2023-01-23T01:53:19.440Z,102371.19
2023-01-23T01:55:46.628Z,102372.03
2023-01-23T01:58:14.208Z,102375.88
2023-01-23T02:00:41.256Z,102378.66
2023-01-23T02:03:08.245Z,102378.38
2023-01-23T02:05:39.654Z,102376.72
2023-01-23T02:08:17.213Z,102384.16
2023-01-23T02:10:46.004Z,102375.06
2023-01-23T02:13:33.812Z,102376.72
2023-01-23T02:16:03.776Z,102380.59
2023-01-23T02:18:32.711Z,102380.59
2023-01-23T02:21:03.669Z,102381.72
2023-01-23T02:23:30.204Z,102378.97
2023-01-23T02:26:00.510Z,102375.66
2023-01-23T02:28:38.680Z,102375.38
2023-01-23T02:31:05.742Z,102380.59
2023-01-23T02:33:32.562Z,102373.44
2023-01-23T02:36:00.437Z,102381.72
2023-01-23T02:38:32.486Z,102378.97
2023-01-23T02:41:03.124Z,102375.06
2023-01-23T02:43:36.081Z,102373.44
2023-01-23T02:46:07.571Z,102371.50
2023-01-23T02:48:34.667Z,102361.25
2023-01-23T02:51:01.382Z,102369.53
2023-01-23T02:53:28.030Z,102365.69
2023-01-23T02:55:54.684Z,102361.00
2023-01-23T02:58:39.909Z,102357.09
2023-01-23T03:01:06.845Z,102352.41
2023-01-23T03:03:33.598Z,102354.06
2023-01-23T03:06:03.433Z,102353.22
2023-01-23T03:08:36.249Z,102349.38
2023-01-23T03:11:04.705Z,102352.94
2023-01-23T03:13:31.550Z,102343.84
2023-01-23T03:15:58.401Z,102336.66
2023-01-23T03:18:27.695Z,102351.28
2023-01-23T03:20:54.361Z,102341.34
2023-01-23T03:23:20.996Z,102338.59
2023-01-23T03:25:49.117Z,102338.06
2023-01-23T03:28:34.382Z,102346.34
2023-01-23T03:31:01.156Z,102342.75
2023-01-23T03:33:28.097Z,102341.94
2023-01-23T03:35:54.748Z,102348.28
2023-01-23T03:38:21.404Z,102359.06
2023-01-23T03:41:09.083Z,102368.97
2023-01-23T03:43:35.725Z,102357.09
2023-01-23T03:46:02.343Z,102351.28
2023-01-23T03:48:28.958Z,102365.94
2023-01-23T03:50:55.612Z,102366.75
2023-01-23T03:53:23.407Z,102370.31
2023-01-23T03:55:50.052Z,102358.47
2023-01-23T03:58:16.823Z,102361.22
2023-01-23T04:00:43.557Z,102358.47
2023-01-23T04:03:10.447Z,102369.53
2023-01-23T04:05:37.168Z,102360.09
2023-01-23T04:08:03.978Z,102359.28
2023-01-23T04:10:30.683Z,102364.00
2023-01-23T04:12:59.930Z,102361.22
2023-01-23T04:15:26.549Z,102372.28
2023-01-23T04:17:53.205Z,102371.16
2023-01-23T04:20:20.215Z,102371.16
2023-01-23T04:22:47.122Z,102358.47
2023-01-23T04:25:13.776Z,102363.69
2023-01-23T04:27:41.462Z,102359.56
2023-01-23T04:30:09.359Z,102355.72
2023-01-23T04:32:36.046Z,102363.16
2023-01-23T04:35:02.639Z,102365.09
2023-01-23T04:37:29.395Z,102368.97
2023-01-23T04:39:56.097Z,102380.84
2023-01-23T04:42:22.915Z,102378.91
2023-01-23T04:44:49.567Z,102377.25
2023-01-23T04:47:16.364Z,102375.31
2023-01-23T04:49:43.503Z,102378.91
2023-01-23T04:52:10.077Z,102379.19
2023-01-23T04:54:36.881Z,102382.75
2023-01-23T04:57:05.039Z,102381.94
2023-01-23T04:59:31.647Z,102386.66
2023-01-23T05:01:58.296Z,102383.06
2023-01-23T05:04:25.036Z,102392.44
2023-01-23T05:06:51.702Z,102397.13
2023-01-23T05:09:18.357Z,102401.03
2023-01-23T05:11:45.047Z,102401.88
2023-01-23T05:14:12.239Z,102403.50
2023-01-23T05:16:38.976Z,102408.19
2023-01-23T05:19:05.660Z,102414.84
2023-01-23T05:21:32.316Z,102424.75
2023-01-23T05:23:58.904Z,102424.75
2023-01-23T05:26:25.563Z,102431.09
2023-01-23T05:28:52.233Z,102427.50
2023-01-23T05:31:18.932Z,102431.09
2023-01-23T05:33:45.694Z,102443.78
2023-01-23T05:36:12.372Z,102443.78
2023-01-23T05:38:40.443Z,102444.63
2023-01-23T05:41:07.087Z,102442.97
2023-01-23T05:43:33.710Z,102443.78
2023-01-23T05:46:01.644Z,102438.53
2023-01-23T05:48:28.770Z,102434.69
2023-01-23T05:50:55.517Z,102418.44
2023-01-23T05:53:22.271Z,102431.41
2023-01-23T05:55:48.937Z,102415.09
2023-01-23T05:58:16.094Z,102426.97
2023-01-23T06:00:42.850Z,102419.84
2023-01-23T06:03:09.565Z,102421.75
2023-01-23T06:05:36.168Z,102412.66
2023-01-23T06:08:02.980Z,102406.31
2023-01-23T06:10:29.606Z,102412.66
2023-01-23T06:12:56.253Z,102404.38
2023-01-23T06:15:22.864Z,102403.28
2023-01-23T06:17:49.610Z,102404.38
2023-01-23T06:20:16.547Z,102404.38
2023-01-23T06:22:43.161Z,102400.78
2023-01-23T06:25:10.313Z,102395.25
2023-01-23T06:27:37.060Z,102398.84
2023-01-23T06:30:04.204Z,102402.44
2023-01-23T06:32:30.870Z,102393.03
2023-01-23T06:34:57.488Z,102392.22
2023-01-23T06:37:25.217Z,102393.84
2023-01-23T06:39:51.904Z,102393.84
2023-01-23T06:42:18.531Z,102381.19
2023-01-23T06:44:45.220Z,102375.66
2023-01-23T06:47:11.923Z,102382.00
2023-01-23T06:49:38.780Z,102383.66
2023-01-23T06:52:05.686Z,102392.22
2023-01-23T06:54:32.317Z,102398.56
2023-01-23T06:56:58.921Z,102413.47
2023-01-23T06:59:25.664Z,102417.06
2023-01-23T07:01:52.411Z,102423.69
2023-01-23T07:04:19.065Z,102428.13
2023-01-23T07:06:45.734Z,102434.44
2023-01-23T07:09:12.402Z,102438.03
2023-01-23T07:11:39.916Z,102441.91
2023-01-23T07:14:06.612Z,102451.81
2023-01-23T07:16:35.213Z,102444.66
2023-01-23T07:19:03.478Z,102443.53
2023-01-23T07:21:30.124Z,102450.72
2023-01-23T07:23:56.854Z,102450.72
2023-01-23T07:26:23.533Z,102446.31
2023-01-23T07:28:50.218Z,102454.31
2023-01-23T07:31:16.919Z,102464.53
2023-01-23T07:33:43.681Z,102466.97
2023-01-23T07:36:10.725Z,102470.88
2023-01-23T07:38:37.412Z,102485.47
2023-01-23T07:41:04.155Z,102481.09
2023-01-23T07:43:30.787Z,102486.59
2023-01-23T07:46:00.871Z,102488.53
2023-01-23T07:48:29.449Z,102483.31
2023-01-23T07:50:56.132Z,102477.25
2023-01-23T07:53:22.871Z,102471.19
2023-01-23T07:55:49.515Z,102481.69
2023-01-23T07:58:16.108Z,102484.19
2023-01-23T08:00:42.849Z,102492.78
2023-01-23T08:03:09.536Z,102498.56
2023-01-23T08:05:36.202Z,102504.41
2023-01-23T08:08:13.094Z,102502.19
2023-01-23T08:10:40.935Z,102511.88
2023-01-23T08:13:07.648Z,102525.94
2023-01-23T08:15:34.322Z,102519.59
2023-01-23T08:18:01.020Z,102527.34
2023-01-23T08:20:27.892Z,102527.63
2023-01-23T08:22:54.560Z,102538.94
2023-01-23T08:25:21.173Z,102538.94
2023-01-23T08:27:47.839Z,102540.88
2023-01-23T08:30:14.692Z,102543.09
2023-01-23T08:32:41.336Z,102554.94
2023-01-23T08:35:08.423Z,102547.78
2023-01-23T08:37:36.078Z,102541.97
2023-01-23T08:40:03.572Z,102538.13
2023-01-23T08:42:30.289Z,102548.84
2023-01-23T08:44:56.929Z,102554.09
2023-01-23T08:47:23.863Z,102552.97
2023-01-23T08:49:50.559Z,102554.34
2023-01-23T08:52:17.292Z,102551.34
2023-01-23T08:54:43.889Z,102560.16
2023-01-23T08:57:10.613Z,102567.34
2023-01-23T08:59:37.228Z,102556.81
2023-01-23T09:02:03.982Z,102560.13
2023-01-23T09:04:30.885Z,102568.94
2023-01-23T09:06:57.523Z,102569.50
2023-01-23T09:09:24.303Z,102573.88
2023-01-23T09:11:51.020Z,102565.34
2023-01-23T09:14:17.954Z,102568.63
2023-01-23T09:16:44.660Z,102571.09
2023-01-23T09:19:12.773Z,102562.53
2023-01-23T09:21:39.401Z,102566.66
2023-01-23T09:24:06.470Z,102558.91
2023-01-23T09:26:33.193Z,102558.34
2023-01-23T09:28:59.978Z,102571.03
2023-01-23T09:31:26.666Z,102567.97
2023-01-23T09:33:53.303Z,102570.44
2023-01-23T09:36:27.485Z,102574.56
2023-01-23T09:39:00.795Z,102567.94
2023-01-23T09:41:28.854Z,102570.13
2023-01-23T09:44:19.325Z,102574.25
2023-01-23T09:46:55.813Z,102578.06
2023-01-23T09:49:37.237Z,102582.19
2023-01-23T09:52:12.142Z,102585.19
2023-01-23T09:54:53.070Z,102584.63
2023-01-23T09:57:41.830Z,102594.28
2023-01-23T10:00:41.064Z,102584.31
2023-01-23T10:03:15.934Z,102582.91
2023-01-23T10:05:54.596Z,102586.72
2023-01-23T10:08:40.044Z,102586.69
2023-01-23T10:11:21.179Z,102585.00
2023-01-23T10:14:32.336Z,102592.69
2023-01-23T10:17:14.732Z,102597.63
2023-01-23T10:19:48.473Z,102590.69
2023-01-23T10:22:24.974Z,102590.13
2023-01-23T10:24:56.357Z,102597.56
2023-01-23T10:27:44.768Z,102597.78
2023-01-23T10:30:19.198Z,102610.72
2023-01-23T10:33:17.046Z,102596.88
2023-01-23T10:35:51.852Z,102607.88
2023-01-23T10:38:47.842Z,102619.47
2023-01-23T10:41:22.360Z,102624.41
2023-01-23T10:43:52.378Z,102610.81
2023-01-23T10:46:28.996Z,102614.66
2023-01-23T10:48:56.369Z,102613.78
2023-01-23T10:51:31.721Z,102614.28
2023-01-23T10:54:32.373Z,102623.94
2023-01-23T10:57:21.030Z,102616.19
2023-01-23T11:00:04.584Z,102619.19
2023-01-23T11:02:34.180Z,102623.03
2023-01-23T11:05:02.423Z,102624.06
2023-01-23T11:07:31.416Z,102612.44
2023-01-23T11:10:23.339Z,102608.50
2023-01-23T11:12:54.706Z,102604.56
2023-01-23T11:15:23.318Z,102603.94
2023-01-23T11:17:52.239Z,102600.91
2023-01-23T11:20:33.371Z,102598.66
2023-01-23T11:23:10.809Z,102612.72
2023-01-23T11:25:43.164Z,102603.84
2023-01-23T11:28:42.477Z,102608.22
2023-01-23T11:31:16.193Z,102605.47
2023-01-23T11:33:52.161Z,102608.78
2023-01-23T11:36:18.840Z,102608.78
2023-01-23T11:38:52.902Z,102600.75
2023-01-23T11:41:25.168Z,102599.94
2023-01-23T11:43:52.915Z,102606.28
2023-01-23T11:47:10.164Z,102609.59
2023-01-23T11:50:14.305Z,102588.28
2023-01-23T11:52:49.622Z,102601.00
2023-01-23T11:55:28.518Z,102597.91
2023-01-23T11:58:17.866Z,102599.28
2023-01-23T12:00:52.537Z,102599.22
2023-01-23T12:03:41.232Z,102601.94
2023-01-23T12:06:22.899Z,102605.47
2023-01-23T12:09:04.611Z,102602.34
2023-01-23T12:12:00.261Z,102605.34
2023-01-23T12:14:50.825Z,102605.03
2023-01-23T12:17:46.453Z,102601.16
2023-01-23T12:20:22.867Z,102595.63
2023-01-23T12:23:16.832Z,102596.72
2023-01-23T12:25:53.546Z,102595.06
2023-01-23T12:28:42.077Z,102597.25
2023-01-23T12:31:34.856Z,102593.03
2023-01-23T12:34:22.937Z,102592.44
2023-01-23T12:37:25.748Z,102582.63
2023-01-23T12:40:08.626Z,102590.28
2023-01-23T12:43:04.861Z,102589.69
2023-01-23T12:45:33.709Z,102591.84
2023-01-23T12:48:13.836Z,102592.59
2023-01-23T12:50:47.745Z,102592.00
2023-01-23T12:53:20.639Z,102592.19
2023-01-23T12:55:56.163Z,102591.59
2023-01-23T12:58:27.062Z,102593.78
2023-01-23T13:01:05.173Z,102599.22
2023-01-23T13:03:47.537Z,102600.28
2023-01-23T13:06:14.158Z,102607.69
2023-01-23T13:09:05.548Z,102605.03
2023-01-23T13:11:46.419Z,102608.38
2023-01-23T13:14:36.879Z,102608.41
2023-01-23T13:17:29.947Z,102613.16
2023-01-23T13:20:38.340Z,102608.22
2023-01-23T13:23:37.836Z,102617.22
2023-01-23T13:26:16.446Z,102615.97
2023-01-23T13:28:45.949Z,102615.66
2023-01-23T13:31:27.989Z,102611.56
2023-01-23T13:34:01.077Z,102612.25
2023-01-23T13:36:37.721Z,102625.72
2023-01-23T13:39:17.758Z,102611.91
2023-01-23T13:41:46.365Z,102620.03
2023-01-23T13:44:35.871Z,102623.41
2023-01-23T14:24:32.514Z,102657.50
2023-01-23T14:27:07.307Z,102646.50
2023-01-23T14:29:34.858Z,102661.53
2023-01-23T14:32:01.641Z,102663.88
2023-01-23T14:34:28.661Z,102663.94
2023-01-23T14:37:04.055Z,102651.28
2023-01-23T14:39:33.635Z,102645.81
2023-01-23T14:42:02.607Z,102644.78
2023-01-23T14:44:43.993Z,102652.84
2023-01-23T14:47:34.361Z,102648.72
2023-01-23T14:50:02.808Z,102655.97
2023-01-23T14:52:31.562Z,102651.34
2023-01-23T14:55:05.850Z,102644.44
2023-01-23T14:57:35.657Z,102643.41
2023-01-23T15:00:03.670Z,102652.00
2023-01-23T15:02:33.383Z,102651.47
2023-01-23T15:05:09.076Z,102659.53
2023-01-23T15:07:45.107Z,102660.13
2023-01-23T15:10:30.654Z,102659.06
2023-01-23T15:13:04.116Z,102660.47
2023-01-23T15:15:33.498Z,102649.97
2023-01-23T15:18:02.157Z,102666.06
2023-01-23T15:20:29.085Z,102661.13
2023-01-23T15:22:55.721Z,102659.75
2023-01-23T15:25:29.911Z,102660.59
2023-01-23T15:27:56.597Z,102648.19
2023-01-23T15:30:35.437Z,102662.00
2023-01-23T15:33:07.338Z,102666.72
2023-01-23T15:35:38.920Z,102668.13
2023-01-23T15:38:08.638Z,102671.16
2023-01-23T15:40:38.291Z,102670.34
2023-01-23T15:43:05.730Z,102682.53
2023-01-23T15:45:33.982Z,102678.94
2023-01-23T15:48:01.316Z,102681.19
2023-01-23T15:50:29.047Z,102689.75
2023-01-23T15:52:56.243Z,102680.66
2023-01-23T15:55:27.894Z,102677.06
2023-01-23T15:57:55.527Z,102684.53
2023-01-23T16:00:27.660Z,102680.09
2023-01-23T16:02:57.363Z,102683.19
2023-01-23T16:05:31.094Z,102689.81
2023-01-23T16:08:01.180Z,102690.72
2023-01-23T16:10:38.317Z,102686.59
2023-01-23T16:13:05.288Z,102689.66
2023-01-23T16:15:34.571Z,102680.81
2023-01-23T16:18:04.659Z,102689.41
2023-01-23T16:20:35.237Z,102691.66
2023-01-23T16:23:14.631Z,102689.97
2023-01-23T16:25:46.365Z,102682.00
2023-01-23T16:28:14.743Z,102678.41
2023-01-23T16:30:41.593Z,102690.03
2023-01-23T16:33:08.823Z,102693.91
2023-01-23T16:35:35.556Z,102686.75
2023-01-23T16:38:02.268Z,102689.25
2023-01-23T16:40:33.777Z,102692.91
2023-01-23T16:43:03.025Z,102700.63
2023-01-23T16:45:31.658Z,102691.81
2023-01-23T16:47:58.968Z,102695.72
2023-01-23T16:50:47.624Z,102695.16
2023-01-23T16:53:26.818Z,102698.53
2023-01-23T16:55:55.773Z,102712.94
2023-01-23T16:58:26.477Z,102710.75
2023-01-23T17:01:00.140Z,102707.44
2023-01-23T17:03:31.533Z,102703.59
2023-01-23T17:05:58.396Z,102712.47
2023-01-23T17:08:25.953Z,102715.53
2023-01-23T17:10:59.591Z,102713.03
2023-01-23T17:13:27.098Z,102718.56
2023-01-23T17:15:56.457Z,102721.63
2023-01-23T17:18:25.854Z,102719.69
2023-01-23T17:20:56.097Z,102727.97
2023-01-23T17:23:24.204Z,102735.13
2023-01-23T17:26:00.281Z,102732.38
2023-01-23T17:28:27.756Z,102739.56
2023-01-23T17:30:55.520Z,102744.00
2023-01-23T17:33:31.188Z,102744.78
2023-01-23T17:35:58.098Z,102752.81
2023-01-23T17:38:32.184Z,102748.13
2023-01-23T17:40:58.849Z,102750.56
2023-01-23T17:43:25.506Z,102750.53
2023-01-23T17:45:52.977Z,102754.97
2023-01-23T17:48:28.431Z,102763.53
2023-01-23T17:50:55.935Z,102761.91
2023-01-23T17:53:24.062Z,102759.41
2023-01-23T17:55:52.774Z,102767.16
2023-01-23T17:58:20.647Z,102761.66
2023-01-23T18:00:51.043Z,102774.44
2023-01-23T18:03:23.051Z,102770.28
2023-01-23T18:05:49.783Z,102775.31
2023-01-23T18:08:26.482Z,102783.31
2023-01-23T18:10:56.495Z,102771.75
2023-01-23T18:14:21.565Z,102771.50
2023-01-23T18:16:49.889Z,102782.81
2023-01-23T18:19:19.621Z,102775.41
2023-01-23T18:21:48.860Z,102786.19
2023-01-23T18:24:36.993Z,102772.94
2023-01-23T18:27:20.838Z,102780.97
2023-01-23T18:30:07.048Z,102776.78
2023-01-23T18:33:07.313Z,102765.72
2023-01-23T18:36:23.099Z,102774.84
2023-01-23T18:39:10.805Z,102782.56
2023-01-23T18:41:46.040Z,102782.78
2023-01-23T18:44:22.465Z,102784.72
2023-01-23T18:46:49.271Z,102789.38
2023-01-23T18:49:27.733Z,102786.84
2023-01-23T18:52:07.390Z,102792.94
2023-01-23T18:54:54.451Z,102793.16
2023-01-23T18:57:30.015Z,102800.91
2023-01-23T19:00:24.738Z,102800.06
2023-01-23T19:02:55.352Z,102800.91
2023-01-23T19:05:33.015Z,102805.03
2023-01-23T19:08:02.413Z,102815.25
2023-01-23T19:10:40.089Z,102805.81
2023-01-23T19:13:21.106Z,102816.59
2023-01-23T19:16:31.044Z,102817.13
2023-01-23T19:19:15.290Z,102817.97
2023-01-23T19:21:43.627Z,102817.66
2023-01-23T19:24:11.405Z,102812.97
2023-01-23T19:26:40.912Z,102828.47
2023-01-23T19:29:21.028Z,102824.56
2023-01-23T19:32:03.544Z,102830.94
2023-01-23T19:34:32.960Z,102828.69
2023-01-23T19:36:59.584Z,102828.69
2023-01-23T19:39:26.280Z,102825.66
2023-01-23T19:41:53.462Z,102834.75
2023-01-23T19:44:24.230Z,102824.00
2023-01-23T19:46:52.473Z,102837.00
2023-01-23T19:49:19.389Z,102837.28
2023-01-23T19:51:46.174Z,102837.28
2023-01-23T19:54:14.517Z,102837.28
2023-01-23T19:56:42.380Z,102847.81
2023-01-23T19:59:09.492Z,102847.81
2023-01-23T20:01:47.464Z,102836.19
2023-01-23T20:04:20.951Z,102842.84
2023-01-23T20:06:49.204Z,102843.94
2023-01-23T20:09:16.183Z,102840.66
2023-01-23T20:11:43.555Z,102841.22
2023-01-23T20:14:11.388Z,102837.94
2023-01-23T20:16:40.417Z,102842.88
2023-01-23T20:19:07.574Z,102838.75
2023-01-23T20:21:34.514Z,102837.13
2023-01-23T20:24:01.270Z,102833.25
2023-01-23T20:26:27.984Z,102842.41
2023-01-23T20:28:54.704Z,102847.41
2023-01-23T20:31:21.842Z,102857.94
2023-01-23T20:33:48.733Z,102850.47
2023-01-23T20:36:16.053Z,102851.88
2023-01-23T20:38:43.163Z,102848.28
2023-01-23T20:41:18.915Z,102844.13
2023-01-23T20:43:46.243Z,102847.72
2023-01-23T20:46:14.938Z,102854.66
2023-01-23T20:48:46.587Z,102860.75
2023-01-23T20:51:15.481Z,102852.22
2023-01-23T20:53:42.937Z,102855.81
2023-01-23T20:56:10.892Z,102857.75
2023-01-23T20:58:59.787Z,102859.16
2023-01-23T21:01:29.615Z,102855.31
2023-01-23T21:03:56.523Z,102858.63
2023-01-23T21:06:23.423Z,102850.91
2023-01-23T21:08:50.136Z,102856.44
2023-01-23T21:11:19.861Z,102865.03
2023-01-23T21:13:55.730Z,102866.41
2023-01-23T21:16:22.458Z,102868.06
2023-01-23T21:18:49.129Z,102851.50
2023-01-23T21:21:19.833Z,102855.97
2023-01-23T21:23:49.306Z,102866.44
2023-01-23T21:26:23.291Z,102864.22
2023-01-23T21:28:52.482Z,102866.44
2023-01-23T21:31:30.276Z,102870.31
2023-01-23T21:34:01.129Z,102863.13
2023-01-23T21:36:29.055Z,102876.41
2023-01-23T21:38:56.044Z,102885.22
2023-01-23T21:41:22.950Z,102881.63
2023-01-23T21:43:49.964Z,102879.69
2023-01-23T21:46:17.297Z,102879.69
2023-01-23T21:48:44.153Z,102889.91
2023-01-23T21:51:13.702Z,102870.88
2023-01-23T21:53:42.952Z,102883.56
2023-01-23T21:56:10.705Z,102879.16
2023-01-23T21:58:37.654Z,102883.00
2023-01-23T22:01:30.157Z,102884.13
2023-01-23T22:03:57.457Z,102884.94
2023-01-23T22:06:24.132Z,102891.59
2023-01-23T22:08:50.959Z,102886.59
2023-01-23T22:11:17.612Z,102892.66
2023-01-23T22:13:44.490Z,102899.56
2023-01-23T22:16:12.346Z,102894.06
2023-01-23T22:18:39.056Z,102891.84
2023-01-23T22:21:06.870Z,102887.41
2023-01-23T22:23:34.072Z,102892.41
2023-01-23T22:26:08.067Z,102898.47
2023-01-23T22:28:35.553Z,102896.25
2023-01-23T22:31:09.980Z,102897.91
2023-01-23T22:33:40.893Z,102915.00
2023-01-23T22:36:09.749Z,102908.34
2023-01-23T22:38:36.555Z,102911.66
2023-01-23T22:41:05.725Z,102915.78
2023-01-23T22:43:33.411Z,102902.28
2023-01-23T22:46:19.349Z,102906.66
2023-01-23T22:48:46.316Z,102901.41
2023-01-23T22:51:24.187Z,102900.03
2023-01-23T22:53:52.078Z,102903.34
2023-01-23T22:56:18.965Z,102913.22
2023-01-23T22:58:47.339Z,102906.59
2023-01-23T23:01:14.576Z,102910.16
2023-01-23T23:03:41.544Z,102915.91
2023-01-23T23:06:11.263Z,102913.97
2023-01-23T23:08:38.126Z,102907.63
2023-01-23T23:11:08.379Z,102913.91
2023-01-23T23:13:37.353Z,102918.03
2023-01-23T23:16:17.851Z,102916.94
2023-01-23T23:18:45.995Z,102910.59
2023-01-23T23:21:16.278Z,102912.19
2023-01-23T23:23:43.159Z,102917.97
2023-01-23T23:26:10.889Z,102919.03
2023-01-23T23:28:38.946Z,102908.88
2023-01-23T23:31:07.764Z,102914.69
2023-01-23T23:33:36.338Z,102922.09
2023-01-23T23:36:03.122Z,102903.91
2023-01-23T23:38:29.701Z,102916.28
2023-01-23T23:40:58.318Z,102919.53
2023-01-23T23:43:25.484Z,102910.72
2023-01-23T23:45:57.467Z,102907.41
2023-01-23T23:48:25.281Z,102909.34
2023-01-23T23:50:52.223Z,102918.97
2023-01-23T23:53:19.400Z,102910.97
2023-01-23T23:55:46.677Z,102917.28
2023-01-23T23:58:13.753Z,102917.28
